createdAt,value
2019-02-15T00:02:22.028Z,5.40
2019-02-15T00:04:50.832Z,5.40
2019-02-15T00:07:19.797Z,5.30
2019-02-15T00:09:48.667Z,5.20
2019-02-15T00:12:17.644Z,5.00
2019-02-15T00:14:48.320Z,4.90
2019-02-15T00:17:28.193Z,4.80
2019-02-15T00:19:57.165Z,4.70
2019-02-15T00:22:25.980Z,4.60
2019-02-15T00:24:54.749Z,4.60
2019-02-15T00:27:24.019Z,4.70
2019-02-15T00:29:52.841Z,4.60
2019-02-15T00:32:21.768Z,4.60
2019-02-15T00:34:50.780Z,4.60
2019-02-15T00:37:19.605Z,4.60
2019-02-15T00:39:48.422Z,4.60
2019-02-15T00:42:17.445Z,4.60
2019-02-15T00:44:46.254Z,4.60
2019-02-15T00:47:28.362Z,4.50
2019-02-15T00:50:05.561Z,4.50
2019-02-15T00:52:56.801Z,4.60
2019-02-15T00:55:50.996Z,4.50
2019-02-15T00:58:38.338Z,4.60
2019-02-15T01:01:23.391Z,4.50
2019-02-15T01:04:16.289Z,4.40
2019-02-15T01:07:03.098Z,4.40
2019-02-15T01:10:00.437Z,4.40
2019-02-15T01:12:34.747Z,4.50
2019-02-15T01:15:04.001Z,4.40
2019-02-15T01:17:32.811Z,4.40
2019-02-15T01:20:01.702Z,4.30
2019-02-15T01:22:30.798Z,4.20
2019-02-15T01:25:00.301Z,4.30
2019-02-15T01:27:39.422Z,4.40
2019-02-15T01:30:26.510Z,4.30
2019-02-15T01:33:18.056Z,4.30
2019-02-15T01:36:15.316Z,4.30
2019-02-15T01:38:50.841Z,4.30
2019-02-15T01:41:42.364Z,4.20
2019-02-15T01:44:16.482Z,4.20
2019-02-15T01:46:49.707Z,4.20
2019-02-15T01:49:18.749Z,4.10
2019-02-15T01:51:47.547Z,4.10
2019-02-15T01:54:16.411Z,4.10
2019-02-15T01:56:45.404Z,4.10
2019-02-15T01:59:14.294Z,4.10
2019-02-15T02:01:43.357Z,4.10
2019-02-15T02:04:31.816Z,4.10
2019-02-15T02:07:00.636Z,4.10
2019-02-15T02:09:29.577Z,4.10
2019-02-15T02:11:58.571Z,4.10
2019-02-15T02:14:27.523Z,4.10
2019-02-15T02:16:56.385Z,4.10
2019-02-15T02:19:25.546Z,4.20
2019-02-15T02:21:54.558Z,4.10
2019-02-15T02:24:23.370Z,4.10
2019-02-15T02:26:52.624Z,4.10
2019-02-15T02:29:21.509Z,4.10
2019-02-15T02:31:50.505Z,4.20
2019-02-15T02:34:19.652Z,4.20
2019-02-15T02:36:56.172Z,4.30
2019-02-15T02:39:25.638Z,4.30
2019-02-15T02:41:54.521Z,4.30
2019-02-15T02:44:23.495Z,4.20
2019-02-15T02:46:52.588Z,4.20
2019-02-15T02:49:21.497Z,4.20
2019-02-15T02:51:50.301Z,4.20
2019-02-15T02:54:19.500Z,4.20
2019-02-15T02:56:48.364Z,4.20
2019-02-15T02:59:17.284Z,4.10
2019-02-15T03:01:46.410Z,4.10
2019-02-15T03:04:16.144Z,4.10
2019-02-15T03:06:45.053Z,4.00
2019-02-15T03:09:14.760Z,4.10
2019-02-15T03:11:43.621Z,4.00
2019-02-15T03:14:12.481Z,3.90
2019-02-15T03:16:41.624Z,3.90
2019-02-15T03:19:11.420Z,3.80
2019-02-15T03:21:40.521Z,3.80
2019-02-15T03:24:09.606Z,3.70
2019-02-15T03:26:38.733Z,3.80
2019-02-15T03:29:07.703Z,3.70
2019-02-15T03:31:36.793Z,3.70
2019-02-15T03:34:05.714Z,3.60
2019-02-15T03:37:03.375Z,3.60
2019-02-15T03:39:42.140Z,3.60
2019-02-15T03:42:13.511Z,3.60
2019-02-15T03:44:42.360Z,3.60
2019-02-15T03:47:12.246Z,3.60
2019-02-15T03:49:41.281Z,3.60
2019-02-15T03:52:10.137Z,3.60
2019-02-15T03:54:39.140Z,3.60
2019-02-15T03:57:08.325Z,3.60
2019-02-15T03:59:37.353Z,3.60
2019-02-15T04:02:06.363Z,3.60
2019-02-15T04:04:35.597Z,3.60
2019-02-15T04:07:04.510Z,3.50
2019-02-15T04:09:33.336Z,3.50
2019-02-15T04:12:02.817Z,3.40
2019-02-15T04:14:33.161Z,3.40
2019-02-15T04:17:02.267Z,3.40
2019-02-15T04:19:31.324Z,3.40
2019-02-15T04:22:00.170Z,3.30
2019-02-15T04:24:28.965Z,3.30
2019-02-15T04:26:58.093Z,3.30
2019-02-15T04:29:26.926Z,3.40
2019-02-15T04:31:56.146Z,3.40
2019-02-15T04:34:25.327Z,3.30
2019-02-15T04:36:54.257Z,3.40
2019-02-15T04:39:23.170Z,3.30
2019-02-15T04:41:52.194Z,3.30
2019-02-15T04:44:21.046Z,3.30
2019-02-15T04:46:50.200Z,3.20
2019-02-15T04:49:19.733Z,3.20
2019-02-15T04:51:48.664Z,3.20
2019-02-15T04:54:17.549Z,3.30
2019-02-15T04:56:46.526Z,3.30
2019-02-15T04:59:15.440Z,3.40
2019-02-15T05:01:44.341Z,3.50
2019-02-15T05:04:13.248Z,3.50
2019-02-15T05:06:42.045Z,3.40
2019-02-15T05:09:10.884Z,3.40
2019-02-15T05:11:40.008Z,3.40
2019-02-15T05:14:08.919Z,3.40
2019-02-15T05:16:37.726Z,3.40
2019-02-15T05:19:08.123Z,3.50
2019-02-15T05:21:37.296Z,3.40
2019-02-15T05:24:06.167Z,3.40
2019-02-15T05:26:35.312Z,3.40
2019-02-15T05:29:04.219Z,3.50
2019-02-15T05:31:33.116Z,3.50
2019-02-15T05:34:02.595Z,3.50
2019-02-15T05:36:31.449Z,3.50
2019-02-15T05:39:00.360Z,3.50
2019-02-15T05:41:29.488Z,3.50
2019-02-15T05:43:58.397Z,3.50
2019-02-15T05:46:27.339Z,3.40
2019-02-15T05:48:56.749Z,3.30
2019-02-15T05:51:25.856Z,3.30
2019-02-15T05:53:54.756Z,3.30
2019-02-15T05:56:23.836Z,3.20
2019-02-15T05:58:52.752Z,3.20
2019-02-15T06:01:22.993Z,3.10
2019-02-15T06:03:52.030Z,3.10
2019-02-15T06:06:20.906Z,3.10
2019-02-15T06:08:50.768Z,3.10
2019-02-15T06:11:19.738Z,3.00
2019-02-15T06:13:48.912Z,2.90
2019-02-15T06:16:17.780Z,2.90
2019-02-15T06:18:47.063Z,2.90
2019-02-15T06:21:15.897Z,2.90
2019-02-15T06:23:44.697Z,2.80
2019-02-15T06:26:13.878Z,2.80
2019-02-15T06:28:42.684Z,2.90
2019-02-15T06:31:11.505Z,2.80
2019-02-15T06:33:40.516Z,2.80
2019-02-15T06:36:09.376Z,2.80
2019-02-15T06:38:38.460Z,2.80
2019-02-15T06:41:07.510Z,2.80
2019-02-15T06:43:36.436Z,2.90
2019-02-15T06:46:05.345Z,2.80
2019-02-15T06:48:34.484Z,2.80
2019-02-15T06:51:03.675Z,2.80
2019-02-15T06:53:32.656Z,2.80
2019-02-15T06:56:03.384Z,2.80
2019-02-15T06:58:32.349Z,2.90
2019-02-15T07:01:26.687Z,2.80
2019-02-15T07:04:24.190Z,2.70
2019-02-15T07:06:53.515Z,2.80
2019-02-15T07:09:22.766Z,2.80
2019-02-15T07:11:51.709Z,2.80
2019-02-15T07:14:21.025Z,2.90
2019-02-15T07:16:50.044Z,2.90
2019-02-15T07:19:18.992Z,2.90
2019-02-15T07:21:48.193Z,2.90
2019-02-15T07:24:17.341Z,2.90
2019-02-15T07:26:46.434Z,3.00
2019-02-15T07:29:15.473Z,3.10
2019-02-15T07:31:44.601Z,3.10
2019-02-15T07:34:13.594Z,3.10
2019-02-15T07:36:42.731Z,3.20
2019-02-15T07:39:12.096Z,3.30
2019-02-15T07:41:41.749Z,3.40
2019-02-15T07:44:12.887Z,3.50
2019-02-15T07:46:41.838Z,3.50
2019-02-15T07:49:11.037Z,3.70
2019-02-15T08:27:37.280Z,5.00
2019-02-15T08:30:11.075Z,5.20
2019-02-15T08:32:48.693Z,5.50
2019-02-15T08:35:23.400Z,5.40
2019-02-15T08:37:59.002Z,5.40
2019-02-15T08:40:32.756Z,5.50
2019-02-15T08:43:06.668Z,5.50
2019-02-15T08:45:40.939Z,5.60
2019-02-15T08:48:14.927Z,5.80
2019-02-15T08:50:48.154Z,5.90
2019-02-15T08:53:23.195Z,5.90
2019-02-15T08:55:57.716Z,6.00
2019-02-15T08:58:31.529Z,6.10
2019-02-15T09:01:30.868Z,6.30
2019-02-15T09:03:59.909Z,6.40
2019-02-15T09:06:28.740Z,6.50
2019-02-15T09:08:57.592Z,6.60
2019-02-15T09:11:26.680Z,6.70
2019-02-15T09:13:55.517Z,6.80
2019-02-15T09:16:24.332Z,6.90
2019-02-15T09:18:53.372Z,7.00
2019-02-15T09:21:22.177Z,7.00
2019-02-15T09:23:51.044Z,7.10
2019-02-15T09:26:20.040Z,7.20
2019-02-15T09:28:52.803Z,7.30
2019-02-15T09:31:21.796Z,7.30
2019-02-15T09:33:50.657Z,7.40
2019-02-15T09:36:19.525Z,7.50
2019-02-15T09:39:07.986Z,7.70
2019-02-15T09:41:36.939Z,7.80
2019-02-15T09:44:05.812Z,7.90
2019-02-15T09:46:34.907Z,8.10
2019-02-15T09:49:03.834Z,8.50
2019-02-15T09:51:32.689Z,8.50
2019-02-15T09:54:01.629Z,8.40
2019-02-15T09:56:30.429Z,8.30
2019-02-15T09:58:59.332Z,8.40
2019-02-15T10:01:28.314Z,8.50
2019-02-15T10:03:57.137Z,8.60
2019-02-15T10:06:25.935Z,8.90
2019-02-15T10:08:54.804Z,9.10
2019-02-15T10:11:23.700Z,9.10
2019-02-15T10:13:52.556Z,9.20
2019-02-15T10:16:28.482Z,9.40
2019-02-15T10:18:52.281Z,9.40
2019-02-15T10:21:21.177Z,9.50
2019-02-15T10:23:50.202Z,9.50
2019-02-15T10:26:19.005Z,9.60
2019-02-15T10:28:48.065Z,9.80
2019-02-15T10:31:17.113Z,9.80
2019-02-15T10:33:45.919Z,9.90
2019-02-15T10:36:14.775Z,10.10
2019-02-15T10:38:43.708Z,10.00
2019-02-15T10:41:12.617Z,10.20
2019-02-15T10:43:41.484Z,10.30
2019-02-15T10:46:10.516Z,10.40
2019-02-15T10:48:39.330Z,10.50
2019-02-15T10:51:08.212Z,10.60
2019-02-15T10:53:37.246Z,10.80
2019-02-15T10:56:06.251Z,11.10
2019-02-15T10:58:35.235Z,10.90
2019-02-15T11:01:04.521Z,11.10
2019-02-15T11:03:33.401Z,11.20
2019-02-15T11:06:02.261Z,11.20
2019-02-15T11:08:31.213Z,11.20
2019-02-15T11:11:00.081Z,11.40
2019-02-15T11:13:28.888Z,11.50
2019-02-15T11:15:57.893Z,11.70
2019-02-15T11:18:26.709Z,11.80
2019-02-15T11:20:55.657Z,11.90
2019-02-15T11:23:25.153Z,12.10
2019-02-15T11:25:54.723Z,12.10
2019-02-15T11:28:23.521Z,12.10
2019-02-15T11:30:52.469Z,12.10
2019-02-15T11:33:21.275Z,12.10
2019-02-15T11:35:50.148Z,12.30
2019-02-15T11:38:19.141Z,12.40
2019-02-15T11:40:48.078Z,12.70
2019-02-15T11:43:16.912Z,12.70
2019-02-15T11:45:45.952Z,12.90
2019-02-15T11:48:14.728Z,12.80
2019-02-15T11:50:43.533Z,13.00
2019-02-15T11:53:12.531Z,13.20
2019-02-15T11:55:41.382Z,13.20
2019-02-15T11:58:10.348Z,13.20
2019-02-15T12:00:39.503Z,13.10
2019-02-15T12:03:08.345Z,13.10
2019-02-15T12:05:37.844Z,13.20
2019-02-15T12:08:06.777Z,13.40
2019-02-15T12:10:35.704Z,13.50
2019-02-15T12:13:04.595Z,13.60
2019-02-15T12:15:33.656Z,13.70
2019-02-15T12:18:02.474Z,13.90
2019-02-15T12:20:31.357Z,13.90
2019-02-15T12:23:00.304Z,13.90
2019-02-15T12:25:29.105Z,13.90
2019-02-15T12:27:57.913Z,14.00
2019-02-15T12:30:27.012Z,14.00
2019-02-15T12:32:55.961Z,14.20
2019-02-15T12:35:24.793Z,14.20
2019-02-15T12:37:53.809Z,14.20
2019-02-15T12:40:22.808Z,14.10
2019-02-15T12:42:51.628Z,14.10
2019-02-15T12:45:20.482Z,14.10
2019-02-15T12:47:49.331Z,14.10
2019-02-15T12:50:18.340Z,14.20
2019-02-15T12:52:47.376Z,14.40
2019-02-15T12:55:16.238Z,14.40
2019-02-15T12:57:45.124Z,14.60
2019-02-15T13:00:14.910Z,14.60
2019-02-15T13:02:43.757Z,14.50
2019-02-15T13:05:13.759Z,14.70
2019-02-15T13:07:42.670Z,14.80
2019-02-15T13:10:14.729Z,14.80
2019-02-15T13:12:43.532Z,14.80
2019-02-15T13:15:17.966Z,14.80
2019-02-15T13:17:46.869Z,15.00
2019-02-15T13:20:15.842Z,14.90
2019-02-15T13:22:45.002Z,14.90
2019-02-15T13:25:13.809Z,15.00
2019-02-15T13:27:42.621Z,15.00
2019-02-15T13:30:12.109Z,15.20
2019-02-15T13:32:41.094Z,15.10
2019-02-15T13:35:11.372Z,15.20
2019-02-15T13:37:40.392Z,15.10
2019-02-15T13:40:09.616Z,15.20
2019-02-15T13:42:38.577Z,15.30
2019-02-15T13:45:09.145Z,15.30
2019-02-15T13:47:38.032Z,15.20
2019-02-15T13:50:08.605Z,15.20
2019-02-15T13:55:13.970Z,15.30
2019-02-15T13:57:42.809Z,15.10
2019-02-15T14:00:12.033Z,15.30
2019-02-15T14:02:41.005Z,15.30
2019-02-15T14:05:10.408Z,15.10
2019-02-15T14:07:39.360Z,15.20
2019-02-15T14:10:09.919Z,15.10
2019-02-15T14:12:39.129Z,15.00
2019-02-15T14:15:08.631Z,14.90
2019-02-15T14:17:44.327Z,14.80
2019-02-15T14:20:09.332Z,14.80
2019-02-15T14:22:38.537Z,14.70
2019-02-15T14:25:08.289Z,14.60
2019-02-15T14:27:37.113Z,14.50
2019-02-15T14:30:07.161Z,14.60
2019-02-15T14:32:35.968Z,14.40
2019-02-15T14:35:05.008Z,14.40
2019-02-15T14:37:34.055Z,14.50
2019-02-15T14:40:03.056Z,14.40
2019-02-15T14:42:32.019Z,14.40
2019-02-15T14:45:01.036Z,14.40
2019-02-15T14:47:29.817Z,14.30
2019-02-15T14:49:58.692Z,14.30
2019-02-15T14:52:27.890Z,14.40
2019-02-15T14:54:56.733Z,14.30
2019-02-15T14:57:25.564Z,14.30
2019-02-15T14:59:54.676Z,14.30
2019-02-15T15:02:23.488Z,14.30
2019-02-15T15:04:52.348Z,14.30
2019-02-15T15:07:21.294Z,14.30
2019-02-15T15:09:50.180Z,14.30
2019-02-15T15:12:19.051Z,14.30
2019-02-15T15:14:48.337Z,14.20
2019-02-15T15:17:17.190Z,14.20
2019-02-15T15:19:46.008Z,14.10
2019-02-15T15:22:15.024Z,14.10
2019-02-15T15:24:43.860Z,14.10
2019-02-15T15:27:12.666Z,14.10
2019-02-15T15:29:41.673Z,14.20
2019-02-15T15:32:10.749Z,14.20
2019-02-15T15:34:39.619Z,14.10
2019-02-15T15:37:16.272Z,14.10
2019-02-15T15:39:39.396Z,14.10
2019-02-15T15:42:08.224Z,14.10
2019-02-15T15:44:37.236Z,14.20
2019-02-15T15:47:07.318Z,14.10
2019-02-15T15:49:36.382Z,14.10
2019-02-15T15:52:05.420Z,14.10
2019-02-15T15:54:34.289Z,13.90
2019-02-15T15:57:03.179Z,13.90
2019-02-15T15:59:32.264Z,13.80
2019-02-15T16:02:01.076Z,13.70
2019-02-15T16:04:29.882Z,13.70
2019-02-15T16:06:59.030Z,13.60
2019-02-15T16:09:27.937Z,13.60
2019-02-15T16:11:56.820Z,13.60
2019-02-15T16:14:25.828Z,13.60
2019-02-15T16:16:54.718Z,13.50
2019-02-15T16:19:23.539Z,13.50
2019-02-15T16:21:52.553Z,13.50
2019-02-15T16:24:21.485Z,13.40
2019-02-15T16:26:50.296Z,13.30
2019-02-15T16:29:19.323Z,13.30
2019-02-15T16:31:49.938Z,13.10
2019-02-15T16:34:18.745Z,13.10
2019-02-15T16:36:47.786Z,13.10
2019-02-15T16:39:16.614Z,12.90
2019-02-15T16:41:45.570Z,12.80
2019-02-15T16:44:14.646Z,12.70
2019-02-15T16:46:43.501Z,12.70
2019-02-15T16:49:12.327Z,12.70
2019-02-15T16:51:41.443Z,12.50
2019-02-15T16:54:10.321Z,12.50
2019-02-15T16:56:39.157Z,12.40
2019-02-15T16:59:08.450Z,12.40
2019-02-15T17:01:37.330Z,12.30
2019-02-15T17:04:06.141Z,12.20
2019-02-15T17:06:35.263Z,12.20
2019-02-15T17:09:06.256Z,12.20
2019-02-15T17:11:35.184Z,12.00
2019-02-15T17:14:04.179Z,11.90
2019-02-15T17:16:33.379Z,11.80
2019-02-15T17:19:02.186Z,11.70
2019-02-15T17:21:31.238Z,11.70
2019-02-15T17:24:00.035Z,11.60
2019-02-15T17:26:28.851Z,11.50
2019-02-15T17:28:57.773Z,11.50
2019-02-15T17:31:26.680Z,11.50
2019-02-15T17:33:55.795Z,11.40
2019-02-15T17:36:25.069Z,11.40
2019-02-15T17:38:53.885Z,11.40
2019-02-15T17:41:22.677Z,11.30
2019-02-15T17:43:51.735Z,11.20
2019-02-15T17:46:23.675Z,11.20
2019-02-15T17:49:00.491Z,11.10
2019-02-15T17:51:23.649Z,11.10
2019-02-15T17:53:52.545Z,11.10
2019-02-15T17:56:21.617Z,11.00
2019-02-15T17:58:50.623Z,10.80
2019-02-15T18:01:19.446Z,10.80
2019-02-15T18:03:48.500Z,10.70
2019-02-15T18:06:17.411Z,10.60
2019-02-15T18:08:46.481Z,10.40
2019-02-15T18:11:15.523Z,10.50
2019-02-15T18:13:44.396Z,10.40
2019-02-15T18:16:13.303Z,10.30
2019-02-15T18:18:42.441Z,10.30
2019-02-15T18:21:11.281Z,10.50
2019-02-15T18:23:40.196Z,10.40
2019-02-15T18:26:09.293Z,10.40
2019-02-15T18:28:38.200Z,10.30
2019-02-15T18:31:07.125Z,10.20
2019-02-15T18:33:36.036Z,10.30
2019-02-15T18:36:04.906Z,10.20
2019-02-15T18:38:33.735Z,10.20
2019-02-15T18:41:02.622Z,10.10
2019-02-15T18:43:31.463Z,10.20
2019-02-15T18:46:00.309Z,10.20
2019-02-15T18:48:29.460Z,10.10
2019-02-15T18:50:58.288Z,9.90
2019-02-15T18:53:27.167Z,9.90
2019-02-15T18:55:56.356Z,9.70
2019-02-15T18:58:25.412Z,9.80
2019-02-15T19:00:54.240Z,9.70
2019-02-15T19:03:24.007Z,9.60
2019-02-15T19:05:52.940Z,9.60
2019-02-15T19:08:26.821Z,9.50
2019-02-15T19:10:56.077Z,9.30
2019-02-15T19:13:25.104Z,9.10
2019-02-15T19:15:54.179Z,8.90
2019-02-15T19:18:23.114Z,8.70
2019-02-15T19:20:52.001Z,8.70
2019-02-15T19:23:21.150Z,8.80
2019-02-15T19:25:50.084Z,8.90
2019-02-15T19:28:19.007Z,8.80
2019-02-15T19:30:47.968Z,8.80
2019-02-15T19:33:16.797Z,8.80
2019-02-15T19:35:45.633Z,8.80
2019-02-15T19:38:14.629Z,8.80
2019-02-15T19:40:43.788Z,8.70
2019-02-15T19:43:12.644Z,8.60
2019-02-15T19:45:42.659Z,8.50
2019-02-15T19:48:11.617Z,8.40
2019-02-15T19:50:40.615Z,8.30
2019-02-15T19:53:09.748Z,8.30
2019-02-15T19:55:39.929Z,8.00
2019-02-15T19:58:08.737Z,7.80
2019-02-15T20:00:37.964Z,7.70
2019-02-15T20:03:07.048Z,7.60
2019-02-15T20:05:38.088Z,7.50
2019-02-15T20:08:10.917Z,7.70
2019-02-15T20:10:40.039Z,7.80
2019-02-15T20:13:09.308Z,7.90
2019-02-15T20:15:38.185Z,7.80
2019-02-15T20:18:16.412Z,7.80
2019-02-15T20:20:45.386Z,7.80
2019-02-15T20:23:14.233Z,7.70
2019-02-15T20:25:43.364Z,7.70
2019-02-15T20:28:14.357Z,7.50
2019-02-15T20:30:42.809Z,7.30
2019-02-15T20:33:11.900Z,7.10
2019-02-15T20:35:40.701Z,6.90
2019-02-15T20:38:09.596Z,7.00
2019-02-15T20:40:38.876Z,6.80
2019-02-15T20:43:07.788Z,6.90
2019-02-15T20:45:36.749Z,7.00
2019-02-15T20:48:11.538Z,7.00
2019-02-15T20:50:36.297Z,7.00
2019-02-15T20:53:05.104Z,7.10
2019-02-15T20:55:34.272Z,7.10
2019-02-15T20:58:03.088Z,7.00
2019-02-15T21:00:32.083Z,7.00
2019-02-15T21:03:01.044Z,7.00
2019-02-15T21:05:30.036Z,6.90
2019-02-15T21:07:59.672Z,6.90
2019-02-15T21:10:28.726Z,6.90
2019-02-15T21:12:57.565Z,6.90
2019-02-15T21:15:26.489Z,7.00
2019-02-15T21:17:55.552Z,7.20
2019-02-15T21:20:24.758Z,7.20
2019-02-15T21:22:53.733Z,7.20
2019-02-15T21:25:22.733Z,7.30
2019-02-15T21:27:51.623Z,7.30
2019-02-15T21:30:20.452Z,7.20
2019-02-15T21:32:49.490Z,7.10
2019-02-15T21:35:37.495Z,7.00
2019-02-15T21:38:07.018Z,7.00
2019-02-15T21:40:35.910Z,7.00
2019-02-15T21:43:04.793Z,7.00
2019-02-15T21:45:34.199Z,7.00
2019-02-15T21:48:03.003Z,6.90
2019-02-15T21:50:31.830Z,6.90
2019-02-15T21:53:00.876Z,6.80
2019-02-15T21:55:29.929Z,6.80
2019-02-15T21:58:01.637Z,6.70
2019-02-15T22:00:29.694Z,6.70
2019-02-15T22:02:58.514Z,6.60
2019-02-15T22:05:27.609Z,6.60
2019-02-15T22:07:56.681Z,6.50
2019-02-15T22:10:25.605Z,6.30
2019-02-15T22:12:54.450Z,6.20
2019-02-15T22:15:23.772Z,6.30
2019-02-15T22:17:52.617Z,6.30
2019-02-15T22:20:26.807Z,6.50
2019-02-15T22:22:52.388Z,6.60
2019-02-15T22:25:21.247Z,6.80
2019-02-15T22:27:50.177Z,7.10
2019-02-15T22:30:19.107Z,7.00
2019-02-15T22:32:48.212Z,6.90
2019-02-15T22:35:17.082Z,6.90
2019-02-15T22:37:46.140Z,6.90
2019-02-15T22:40:29.211Z,6.90
2019-02-15T22:43:00.184Z,7.00
2019-02-15T22:45:29.128Z,7.00
2019-02-15T22:47:57.904Z,7.00
2019-02-15T22:50:35.385Z,7.00
2019-02-15T22:52:57.524Z,6.90
2019-02-15T22:55:26.347Z,6.90
2019-02-15T22:57:55.493Z,6.80
2019-02-15T23:00:46.102Z,6.80
2019-02-15T23:03:16.520Z,6.90
2019-02-15T23:05:45.416Z,6.90
2019-02-15T23:08:14.341Z,6.80
2019-02-15T23:10:43.361Z,6.80
2019-02-15T23:13:12.157Z,6.80
2019-02-15T23:15:41.430Z,6.80
2019-02-15T23:18:10.693Z,6.70
2019-02-15T23:20:45.322Z,6.70
2019-02-15T23:23:10.173Z,6.60
2019-02-15T23:25:39.317Z,6.60
2019-02-15T23:28:08.138Z,6.60
2019-02-15T23:30:36.985Z,6.60
2019-02-15T23:33:06.389Z,6.50
2019-02-15T23:35:35.248Z,6.50
2019-02-15T23:38:04.109Z,6.50
2019-02-15T23:40:33.686Z,6.50
2019-02-15T23:43:02.569Z,6.40
2019-02-15T23:45:31.353Z,6.30
2019-02-15T23:48:00.364Z,6.30
2019-02-15T23:50:29.165Z,6.20
2019-02-15T23:52:57.985Z,6.20
2019-02-15T23:55:26.962Z,6.20
2019-02-15T23:57:55.796Z,6.20
